Time;durP1;ratioP1;P1;durP2;ratioP2;P2;SDS_P1;SDS_P2;PMS_P1;PMS_P2;Temp;Humidity;BMP_temperature;BMP_pressure;BME280_temperature;BME280_humidity;BME280_pressure;Samples;Min_cycle;Max_cycle;Signal;HPM_P1;HPM_P2
2021/11/11 00:02:20;;;;;;;37.35;24.20;;;7.70;75.80;;;6.96;61.79;95624.81;5072005;28;20469;-80
2021/11/11 00:04:49;;;;;;;38.30;24.30;;;7.70;75.80;;;7.03;61.66;95638.06;5068224;28;20219;-81
2021/11/11 00:07:16;;;;;;;39.28;24.95;;;7.70;75.80;;;7.02;61.90;95637.25;5083758;28;20306;-80
2021/11/11 00:09:43;;;;;;;38.25;23.38;;;7.70;75.80;;;7.04;61.77;95637.94;5068582;28;20191;-81
2021/11/11 00:12:10;;;;;;;36.30;23.17;;;7.70;75.80;;;7.05;61.45;95633.53;5071567;28;20226;-80
2021/11/11 00:14:37;;;;;;;39.65;24.13;;;7.70;75.80;;;7.06;61.75;95624.72;5071335;28;20205;-81
2021/11/11 00:17:06;;;;;;;39.70;24.80;;;7.70;75.80;;;7.05;61.90;95623.09;5036743;28;20219;-80
2021/11/11 00:19:33;;;;;;;41.40;25.90;;;7.80;75.90;;;7.07;61.57;95636.81;5071443;28;20188;-81
2021/11/11 00:22:02;;;;;;;41.38;26.38;;;7.70;75.80;;;7.05;61.70;95633.53;5050767;28;20223;-80
2021/11/11 00:24:31;;;;;;;36.83;23.85;;;7.70;75.80;;;7.08;61.88;95629.78;5052019;28;20196;-80
2021/11/11 00:26:58;;;;;;;35.78;24.35;;;7.70;75.70;;;7.09;61.71;95639.25;5070672;28;20215;-80
2021/11/11 00:29:25;;;;;;;37.88;25.35;;;7.80;75.90;;;7.08;61.95;95633.22;5071140;28;20219;-80
2021/11/11 00:31:54;;;;;;;36.15;25.40;;;7.80;75.90;;;7.07;61.69;95618.56;5054131;28;20292;-80
2021/11/11 00:34:21;;;;;;;37.53;24.80;;;7.70;75.90;;;7.11;61.88;95624.28;5053617;28;20195;-80
2021/11/11 00:36:48;;;;;;;39.03;26.10;;;7.80;75.90;;;7.10;62.09;95622.63;5055021;28;20221;-80
2021/11/11 00:39:15;;;;;;;42.38;25.80;;;7.80;76.00;;;7.09;61.86;95615.78;5070000;28;20699;-81
2021/11/11 00:41:43;;;;;;;39.05;26.02;;;7.80;75.90;;;7.10;62.26;95618.22;5054556;28;20310;-81
2021/11/11 00:44:10;;;;;;;39.58;25.20;;;7.80;76.00;;;7.11;62.08;95613.84;5054475;28;20283;-81
2021/11/11 00:46:37;;;;;;;40.92;27.85;;;7.80;76.00;;;7.09;62.24;95608.75;5067661;28;20243;-80
2021/11/11 00:49:07;;;;;;;38.63;26.33;;;7.80;76.00;;;7.08;62.10;95603.72;5061540;28;20701;-81
2021/11/11 00:51:36;;;;;;;39.53;25.77;;;7.80;76.00;;;7.09;62.13;95600.94;5070284;28;20622;-80
2021/11/11 00:54:06;;;;;;;37.50;24.73;;;7.80;76.10;;;7.10;61.98;95604.38;5071038;28;20234;-81
2021/11/11 00:56:34;;;;;;;41.83;27.30;;;7.80;76.10;;;7.09;61.92;95606.16;5051210;28;20743;-81
2021/11/11 00:59:04;;;;;;;37.13;25.00;;;7.80;76.10;;;7.09;61.88;95608.75;5063421;28;20217;-81
2021/11/11 01:01:32;;;;;;;38.75;26.00;;;7.80;76.10;;;7.09;62.19;95602.75;5037937;28;20704;-81
2021/11/11 01:04:00;;;;;;;37.30;24.63;;;7.80;76.10;;;7.10;62.13;95597.38;5054267;28;20311;-81
2021/11/11 01:06:29;;;;;;;39.40;26.02;;;7.80;76.10;;;7.11;61.95;95595.59;5067392;28;20230;-79
2021/11/11 01:08:57;;;;;;;44.10;26.85;;;7.80;76.20;;;7.10;62.12;95596.56;5068838;28;20218;-81
2021/11/11 01:11:27;;;;;;;38.63;25.70;;;7.80;76.20;;;7.10;62.40;95588.72;5072796;28;20238;-80
2021/11/11 01:14:16;;;;;;;38.72;24.30;;;7.80;76.20;;;7.08;62.00;95575.84;5074979;28;20236;-81
2021/11/11 01:16:44;;;;;;;43.45;27.65;;;7.80;76.10;;;7.08;62.44;95580.22;5074425;28;20215;-80
2021/11/11 01:19:12;;;;;;;38.80;26.05;;;7.80;76.10;;;7.09;61.94;95582.69;5074997;28;20199;-80
2021/11/11 01:21:40;;;;;;;45.15;27.58;;;7.80;76.10;;;7.06;62.44;95575.19;5074545;28;20219;-81
2021/11/11 01:24:07;;;;;;;42.40;26.95;;;7.80;76.20;;;7.09;62.45;95581.88;5071608;28;20238;-81
2021/11/11 01:26:34;;;;;;;44.55;27.50;;;7.80;76.20;;;7.08;62.09;95578.47;5046990;28;20215;-80
2021/11/11 01:29:04;;;;;;;39.75;24.63;;;7.80;77.00;;;7.07;62.13;95571.59;5070336;28;20697;-81
2021/11/11 01:31:32;;;;;;;44.72;28.38;;;7.90;76.30;;;7.08;62.26;95562.81;5064578;28;20218;-80
2021/11/11 01:34:00;;;;;;;39.63;25.77;;;7.90;76.30;;;7.05;62.27;95570.94;5073882;28;20661;-80
2021/11/11 01:36:29;;;;;;;44.22;27.40;;;7.80;76.20;;;7.07;62.65;95574.22;5073880;28;20689;-79
2021/11/11 01:39:04;;;;;;;38.83;25.00;;;7.80;76.30;;;7.08;62.04;95577.63;5072593;28;20245;-80
2021/11/11 01:41:45;;;;;;;38.25;25.15;;;7.70;76.20;;;7.06;62.46;95583.00;5058851;28;20595;-79
2021/11/11 01:44:19;;;;;;;42.28;25.88;;;7.80;76.30;;;7.04;62.41;95577.09;5073397;28;20548;-79
2021/11/11 01:46:47;;;;;;;39.03;25.75;;;7.80;76.40;;;7.05;62.24;95570.94;5073160;28;20241;-81
2021/11/11 01:49:17;;;;;;;39.90;25.85;;;7.80;76.20;;;7.05;62.34;95574.38;5073763;28;20208;-80
2021/11/11 01:51:47;;;;;;;46.38;28.30;;;7.70;76.20;;;7.01;62.65;95573.03;5073583;28;20273;-80
2021/11/11 01:54:19;;;;;;;46.50;28.55;;;7.80;76.30;;;7.00;62.54;95576.59;5069121;28;20187;-80
2021/11/11 01:56:53;;;;;;;41.55;26.83;;;7.70;76.50;;;6.99;62.60;95577.56;5039361;28;20752;-80
2021/11/11 01:59:24;;;;;;;44.50;27.83;;;7.70;76.30;;;6.98;62.66;95581.16;5049266;28;20552;-81
2021/11/11 02:01:55;;;;;;;42.88;26.23;;;7.70;76.40;;;6.99;62.59;95579.38;5064031;28;20311;-80
2021/11/11 02:04:28;;;;;;;41.03;25.83;;;7.70;76.40;;;6.98;62.72;95581.16;5045838;28;20200;-80
2021/11/11 02:06:58;;;;;;;40.58;25.73;;;7.70;76.40;;;6.95;62.57;95584.06;5051469;28;20843;-80
2021/11/11 02:09:30;;;;;;;41.45;25.80;;;7.70;76.50;;;7.00;62.90;95588.84;5057662;28;20744;-80
2021/11/11 02:12:08;;;;;;;44.42;25.73;;;7.70;76.40;;;6.98;62.70;95573.34;5073620;28;20581;-80
2021/11/11 02:14:38;;;;;;;42.30;25.08;;;7.70;76.40;;;7.00;62.61;95579.19;5066392;28;20564;-80
2021/11/11 02:17:08;;;;;;;42.17;25.52;;;7.70;76.40;;;7.01;62.46;95573.03;5063942;28;20223;-80
2021/11/11 02:19:55;;;;;;;41.35;24.42;;;7.70;76.40;;;6.99;62.81;95580.16;5069439;28;20266;-79
2021/11/11 02:22:23;;;;;;;41.15;25.42;;;7.70;76.50;;;7.00;62.43;95578.41;5047244;28;20211;-81
2021/11/11 02:24:56;;;;;;;40.70;25.42;;;7.70;76.50;;;6.99;62.70;95572.34;5070287;28;20290;-80
2021/11/11 02:27:23;;;;;;;38.15;24.23;;;7.70;76.50;;;7.01;62.51;95577.44;5054306;28;20566;-80
2021/11/11 02:29:53;;;;;;;38.55;23.73;;;7.80;76.60;;;7.00;62.29;95573.19;5071991;28;20302;-81
2021/11/11 02:32:29;;;;;;;42.28;25.25;;;7.70;76.50;;;7.02;62.51;95566.84;5072691;28;20219;-80
2021/11/11 02:34:57;;;;;;;41.90;25.00;;;7.70;76.80;;;7.03;62.42;95557.22;5047297;28;20245;-81
2021/11/11 02:37:30;;;;;;;42.28;25.40;;;7.70;76.50;;;6.99;62.21;95548.06;5065532;28;20211;-80
2021/11/11 02:40:09;;;;;;;42.03;26.83;;;7.70;76.60;;;7.02;62.68;95559.00;5046119;28;20256;-80
2021/11/11 02:42:43;;;;;;;40.38;25.40;;;7.70;76.60;;;7.03;62.63;95559.81;5060275;28;20220;-81
2021/11/11 02:45:28;;;;;;;39.63;25.15;;;7.70;76.60;;;7.02;62.27;95547.78;5055399;28;20199;-81
2021/11/11 02:48:01;;;;;;;40.63;24.52;;;7.70;76.70;;;7.03;62.79;95557.22;5034260;28;20738;-80
2021/11/11 02:50:36;;;;;;;44.25;26.65;;;7.70;76.60;;;7.01;62.52;95549.53;5072184;28;20285;-80
2021/11/11 02:53:05;;;;;;;39.83;24.23;;;7.70;76.50;;;7.03;62.47;95549.38;5037946;28;20724;-80
2021/11/11 02:55:33;;;;;;;40.50;25.20;;;7.70;76.60;;;7.04;62.50;95538.81;5072619;28;20216;-80
2021/11/11 02:58:02;;;;;;;41.67;25.90;;;7.70;76.60;;;7.02;62.58;95543.38;5052854;28;20558;-81
2021/11/11 03:00:43;;;;;;;42.80;25.65;;;7.70;76.60;;;7.03;62.77;95533.72;5048788;28;20203;-80
2021/11/11 03:03:13;;;;;;;41.85;26.55;;;7.70;76.70;;;7.02;63.08;95548.56;5083179;28;20557;-81
2021/11/11 03:05:40;;;;;;;40.30;24.73;;;7.70;76.60;;;6.99;62.81;95545.47;5064160;28;20250;-81
2021/11/11 03:08:12;;;;;;;40.25;24.50;;;7.70;76.60;;;7.02;62.40;95551.19;5077415;28;20218;-81
2021/11/11 03:10:48;;;;;;;39.13;24.10;;;7.80;76.70;;;7.03;62.41;95550.22;5048537;28;20202;-80
2021/11/11 03:13:19;;;;;;;38.22;23.85;;;7.70;76.60;;;7.04;62.52;95548.41;5031366;28;20314;-80
2021/11/11 03:15:56;;;;;;;42.70;25.40;;;7.70;76.70;;;7.03;62.34;95550.22;5070056;28;20657;-80
2021/11/11 03:18:24;;;;;;;44.33;26.35;;;7.70;76.60;;;7.04;62.94;95546.66;5055562;28;20318;-80
2021/11/11 03:20:52;;;;;;;43.67;25.75;;;7.70;76.70;;;7.06;62.74;95549.09;5063807;28;20200;-80
2021/11/11 03:23:19;;;;;;;45.65;26.95;;;7.70;76.60;;;7.02;62.46;95532.13;5078652;28;20299;-81
2021/11/11 03:25:48;;;;;;;43.25;26.38;;;7.70;76.60;;;7.07;62.28;95552.50;5060892;28;20200;-80
2021/11/11 03:28:16;;;;;;;40.13;25.35;;;7.70;76.60;;;7.05;62.50;95558.72;5067327;28;20210;-81
2021/11/11 03:30:45;;;;;;;40.88;25.13;;;7.70;76.70;;;7.05;62.65;95556.13;5047585;28;20258;-81
2021/11/11 03:33:12;;;;;;;43.50;25.95;;;7.70;76.60;;;7.05;62.59;95550.06;5043475;28;20244;-81
2021/11/11 03:35:45;;;;;;;43.47;26.48;;;7.70;76.60;;;7.05;62.52;95552.66;5053614;28;20657;-81
2021/11/11 03:38:13;;;;;;;47.45;28.48;;;7.70;76.60;;;7.04;62.88;95562.28;5052486;28;21100;-81
2021/11/11 03:40:45;;;;;;;41.53;24.83;;;7.70;76.70;;;7.04;62.73;95571.91;5053649;28;20620;-80
2021/11/11 03:43:33;;;;;;;41.58;25.67;;;7.70;76.70;;;7.00;62.84;95566.16;5052990;28;20195;-80
2021/11/11 03:46:11;;;;;;;44.92;27.17;;;7.70;76.60;;;7.02;62.98;95566.84;5065446;28;20215;-80
2021/11/11 03:48:41;;;;;;;41.60;25.02;;;7.70;76.60;;;6.97;62.97;95561.28;5063566;28;20224;-80
2021/11/11 03:51:09;;;;;;;43.25;25.27;;;7.80;76.70;;;6.98;62.63;95568.13;5051252;28;20254;-81
2021/11/11 03:53:37;;;;;;;46.40;26.63;;;7.70;76.70;;;6.99;62.72;95563.72;5065945;28;20278;-81
2021/11/11 03:56:06;;;;;;;44.83;26.73;;;7.70;76.70;;;6.97;62.81;95565.66;5066575;28;20222;-81
2021/11/11 03:58:34;;;;;;;45.13;26.00;;;7.70;76.80;;;6.98;62.94;95565.53;5067250;28;20204;-80
2021/11/11 04:01:02;;;;;;;45.08;25.63;;;7.70;76.80;;;6.95;62.88;95559.78;5063583;28;20188;-80
2021/11/11 04:03:30;;;;;;;44.15;25.85;;;7.70;76.80;;;6.94;63.00;95564.16;5062943;28;20195;-81
2021/11/11 04:05:57;;;;;;;42.35;23.73;;;7.70;76.80;;;6.95;62.65;95558.00;5059469;28;20529;-81
2021/11/11 04:08:33;;;;;;;46.42;26.70;;;7.60;76.80;;;6.94;62.90;95561.56;5051604;28;20206;-81
2021/11/11 04:11:03;;;;;;;44.85;26.42;;;7.60;76.80;;;6.93;63.07;95557.31;5067099;28;20230;-80
2021/11/11 04:13:31;;;;;;;42.17;25.33;;;7.70;76.90;;;6.93;62.78;95557.31;5064128;28;20721;-80
2021/11/11 04:16:00;;;;;;;38.58;23.45;;;7.60;76.80;;;6.92;62.72;95545.28;5064538;28;20195;-80
2021/11/11 04:18:32;;;;;;;40.72;23.85;;;7.60;76.70;;;6.94;62.62;95545.09;5063298;28;20187;-80
2021/11/11 04:21:00;;;;;;;44.30;25.48;;;7.60;76.70;;;6.90;63.51;95539.38;5050304;28;20191;-80
2021/11/11 04:23:29;;;;;;;41.45;24.75;;;7.60;76.80;;;6.93;62.62;95544.28;5052313;28;20605;-80
2021/11/11 04:26:14;;;;;;;42.75;25.00;;;7.60;76.80;;;6.93;62.97;95538.25;5064358;28;20645;-80
2021/11/11 04:31:24;;;;;;;39.92;24.13;;;7.60;76.80;;;6.90;62.83;95539.38;5058088;28;20686;-80
2021/11/11 04:34:00;;;;;;;44.15;24.00;;;7.70;76.90;;;6.91;62.63;95542.78;5068002;28;20417;-80
2021/11/11 04:52:10;;;;;;;46.92;26.08;;;7.60;76.90;;;6.84;62.90;95540.00;5068739;28;20225;-80
2021/11/11 05:03:13;;;;;;;56.42;27.17;;;7.50;77.10;;;6.83;63.31;95538.34;5054049;28;20669;-81
2021/11/11 05:05:41;;;;;;;47.15;26.70;;;7.60;77.10;;;6.81;62.89;95535.91;5054927;28;20214;-81
2021/11/11 05:08:09;;;;;;;51.95;27.08;;;7.50;77.10;;;6.80;63.33;95529.06;5068870;28;20188;-81
2021/11/11 05:10:37;;;;;;;51.70;26.80;;;7.50;77.10;;;6.85;63.30;95536.41;5067927;28;20654;-79
2021/11/11 05:13:05;;;;;;;54.55;25.77;;;7.50;77.20;;;6.86;63.39;95531.03;5067568;28;20211;-81
2021/11/11 05:15:34;;;;;;;60.72;27.85;;;7.50;77.20;;;6.87;63.18;95524.03;5048797;28;20206;-80
2021/11/11 05:18:02;;;;;;;64.57;27.95;;;7.50;77.20;;;6.87;63.17;95526.63;5032825;28;20222;-80
2021/11/11 05:20:33;;;;;;;59.60;27.73;;;7.50;77.20;;;6.87;63.26;95522.25;5052014;28;20623;-80
2021/11/11 05:23:00;;;;;;;57.53;30.02;;;7.60;77.30;;;6.89;63.50;95524.69;5052185;28;20231;-80
2021/11/11 05:25:28;;;;;;;64.10;29.63;;;7.60;77.30;;;6.86;62.89;95517.16;5051923;28;20203;-80
2021/11/11 05:27:55;;;;;;;54.47;30.02;;;7.60;77.20;;;6.91;63.21;95527.16;5082682;28;20246;-80
2021/11/11 05:30:24;;;;;;;68.45;29.80;;;7.60;77.30;;;6.92;63.39;95528.78;5064436;28;20226;-81
2021/11/11 05:32:53;;;;;;;68.38;31.42;;;7.60;77.40;;;6.92;63.32;95526.19;5016080;28;20238;-81
2021/11/11 05:35:25;;;;;;;77.03;32.08;;;7.60;77.40;;;6.87;63.24;95527.47;5016792;28;20200;-80
2021/11/11 05:37:54;;;;;;;71.15;30.88;;;7.60;77.40;;;6.90;63.51;95534.16;5050365;28;20212;-80
2021/11/11 05:40:23;;;;;;;79.32;30.60;;;7.60;77.40;;;6.90;63.53;95542.00;5051705;28;20253;-80
2021/11/11 05:42:51;;;;;;;91.18;29.50;;;7.60;77.40;;;6.91;63.37;95542.78;5084398;28;20215;-80
2021/11/11 05:45:21;;;;;;;69.28;27.55;;;7.70;77.40;;;6.89;63.14;95543.75;5053121;28;20787;-81
2021/11/11 05:47:52;;;;;;;72.72;25.65;;;7.60;77.40;;;6.86;63.45;95548.47;5036617;28;20227;-80
2021/11/11 05:50:20;;;;;;;64.10;25.52;;;7.60;77.40;;;6.84;63.46;95553.84;5045840;28;20223;-79
2021/11/11 05:52:48;;;;;;;56.70;23.88;;;7.60;77.40;;;6.84;63.54;95560.84;5051855;28;20257;-81
2021/11/11 05:55:18;;;;;;;65.57;24.77;;;7.60;77.50;;;6.84;63.65;95555.63;5038041;28;20685;-81
2021/11/11 05:57:46;;;;;;;70.43;24.42;;;7.60;77.50;;;6.84;63.62;95561.66;5056173;28;20226;-82
2021/11/11 06:00:18;;;;;;;60.55;24.63;;;7.50;77.40;;;6.84;63.38;95559.06;5055718;28;20199;-80
2021/11/11 06:02:57;;;;;;;63.03;25.95;;;7.50;77.60;;;6.81;63.69;95567.19;5043146;28;20314;-81
2021/11/11 06:05:26;;;;;;;64.68;24.27;;;7.50;77.50;;;6.81;63.67;95556.75;5057359;28;20200;-80
2021/11/11 06:07:56;;;;;;;63.72;24.92;;;7.50;77.50;;;6.81;64.09;95558.53;5041951;28;20658;-81
2021/11/11 06:10:23;;;;;;;72.88;25.63;;;7.50;77.50;;;6.80;64.04;95562.09;5056246;28;20230;-81
2021/11/11 06:12:50;;;;;;;80.10;25.40;;;7.50;77.50;;;6.79;64.05;95563.09;5056313;28;20217;-81
2021/11/11 06:15:18;;;;;;;79.63;24.58;;;7.50;77.60;;;6.70;63.81;95564.81;5073593;28;20252;-82
2021/11/11 06:17:52;;;;;;;67.88;23.45;;;7.50;77.60;;;6.77;63.59;95572.84;5057136;28;20235;-82
2021/11/11 06:20:21;;;;;;;53.80;20.83;;;7.50;77.60;;;6.76;63.98;95582.44;5073975;28;20195;-82
2021/11/11 06:22:49;;;;;;;54.35;21.58;;;7.50;77.70;;;6.73;63.62;95574.94;5071552;28;20214;-82
2021/11/11 06:25:20;;;;;;;49.20;20.00;;;7.50;77.70;;;6.77;63.91;95578.88;5074387;28;20207;-82
2021/11/11 06:27:51;;;;;;;51.47;20.60;;;7.40;77.70;;;6.77;63.73;95589.31;5065985;28;20229;-80
2021/11/11 06:30:19;;;;;;;52.35;20.40;;;7.50;77.80;;;6.75;63.48;95577.41;5060047;28;20219;-82
2021/11/11 06:32:46;;;;;;;51.50;18.92;;;7.50;77.80;;;6.78;63.61;95577.09;5046334;28;20558;-81
2021/11/11 06:35:32;;;;;;;46.10;20.13;;;7.40;77.70;;;6.78;63.76;95592.75;5074533;28;20282;-80
2021/11/11 06:38:01;;;;;;;62.70;19.83;;;7.40;78.60;;;6.75;63.43;95587.81;5035282;28;20633;-81
2021/11/11 06:40:30;;;;;;;53.03;20.00;;;7.50;77.80;;;6.79;63.71;95600.41;5053327;28;20211;-82
2021/11/11 06:42:59;;;;;;;52.60;21.52;;;7.50;77.80;;;6.78;63.83;95596.16;5049107;28;20623;-80
2021/11/11 06:45:33;;;;;;;51.85;20.80;;;7.50;77.80;;;6.78;63.61;95603.97;5039408;28;20476;-81
2021/11/11 06:48:00;;;;;;;58.03;21.25;;;7.50;77.80;;;6.78;64.18;95605.78;5038349;28;20269;-82
2021/11/11 06:50:28;;;;;;;62.80;21.88;;;7.50;77.90;;;6.78;63.93;95609.19;5044182;28;20228;-81
2021/11/11 06:52:55;;;;;;;66.13;22.50;;;7.50;77.90;;;6.78;64.01;95596.16;5071063;28;20258;-80
2021/11/11 06:55:23;;;;;;;61.53;20.75;;;7.50;77.90;;;6.79;63.63;95594.38;5055501;28;20204;-81
2021/11/11 06:57:51;;;;;;;48.83;20.35;;;7.50;77.90;;;6.77;63.97;95599.75;5072653;28;20215;-80
2021/11/11 07:00:18;;;;;;;55.97;21.70;;;7.50;78.00;;;6.78;64.00;95603.19;5039586;28;20219;-81
2021/11/11 07:02:47;;;;;;;69.88;22.13;;;7.50;77.90;;;6.77;64.04;95604.16;5056085;28;20218;-80
2021/11/11 07:05:18;;;;;;;69.00;22.42;;;7.50;77.90;;;6.78;64.02;95603.97;5055851;28;20306;-81
2021/11/11 07:07:47;;;;;;;61.95;22.48;;;7.50;77.90;;;6.76;64.44;95594.69;5069942;28;20215;-81
2021/11/11 07:10:14;;;;;;;55.00;21.50;;;7.50;78.00;;;6.75;64.04;95598.25;5055229;28;20314;-82
2021/11/11 07:12:42;;;;;;;48.63;20.95;;;7.50;78.00;;;6.77;64.11;95601.53;5085230;28;20215;-81
2021/11/11 07:15:13;;;;;;;41.97;20.13;;;7.40;78.00;;;6.78;64.05;95603.97;5019501;28;20225;-81
2021/11/11 07:17:41;;;;;;;48.88;20.15;;;7.40;78.10;;;6.79;64.24;95602.22;5062440;28;20256;-79
2021/11/11 07:20:13;;;;;;;54.15;20.30;;;7.50;78.20;;;6.80;64.48;95609.88;5070846;28;20249;-81
2021/11/11 07:22:43;;;;;;;43.50;20.17;;;7.50;78.30;;;6.80;64.44;95614.25;5053973;28;20261;-82
2021/11/11 07:25:12;;;;;;;47.53;20.25;;;7.50;78.20;;;6.81;64.34;95605.47;5071859;28;20299;-82
2021/11/11 07:27:41;;;;;;;43.38;19.92;;;7.50;78.20;;;6.82;64.19;95602.72;5045333;28;20239;-81
2021/11/11 07:30:15;;;;;;;42.15;20.88;;;7.50;78.20;;;6.81;64.49;95603.69;5036218;28;20724;-82
2021/11/11 07:32:44;;;;;;;49.55;22.83;;;7.50;78.40;;;6.82;64.77;95612.31;5052546;28;20287;-82
2021/11/11 07:35:12;;;;;;;51.33;20.05;;;7.50;78.30;;;6.80;64.54;95607.28;5053541;28;20285;-82
2021/11/11 07:37:41;;;;;;;40.63;19.38;;;7.50;78.30;;;6.82;63.96;95612.31;5052984;28;20211;-81
2021/11/11 07:40:11;;;;;;;36.47;17.55;;;7.50;78.30;;;6.83;64.50;95603.53;5063456;28;20187;-80
2021/11/11 07:42:39;;;;;;;32.92;16.88;;;7.50;78.30;;;6.82;64.57;95597.53;5063166;28;20289;-81
2021/11/11 07:45:10;;;;;;;36.65;16.33;;;7.50;78.30;;;6.87;64.41;95597.88;5063866;28;20237;-81
2021/11/11 07:47:37;;;;;;;37.63;16.38;;;7.50;78.40;;;6.88;63.88;95591.69;5048893;28;20223;-80
2021/11/11 07:50:08;;;;;;;36.17;16.30;;;7.50;78.40;;;6.93;64.19;95583.38;5064989;28;20298;-80
2021/11/11 07:52:36;;;;;;;35.55;16.23;;;7.50;78.60;;;6.98;64.27;95594.22;5064132;28;20634;-81
2021/11/11 07:55:05;;;;;;;35.33;15.48;;;7.50;78.40;;;7.00;64.28;95596.66;5068672;28;20619;-81
2021/11/11 07:57:34;;;;;;;41.53;16.92;;;7.60;78.60;;;7.04;64.27;95596.19;5053830;28;20220;-81
2021/11/11 08:00:06;;;;;;;44.08;17.52;;;7.60;78.60;;;7.05;64.39;95581.34;5051772;28;20214;-82
2021/11/11 08:02:42;;;;;;;30.55;17.52;;;7.60;78.60;;;7.09;64.26;95592.31;5068567;28;20223;-81
2021/11/11 08:05:13;;;;;;;39.25;17.40;;;7.60;78.50;;;7.09;64.09;95582.69;5047405;28;20286;-81
2021/11/11 08:07:47;;;;;;;45.00;18.08;;;7.70;78.50;;;7.10;64.05;95596.56;5064519;28;20269;-81
2021/11/11 08:10:17;;;;;;;39.75;17.20;;;7.70;78.60;;;7.12;64.27;95589.41;5063744;28;20211;-80
2021/11/11 08:12:45;;;;;;;35.22;17.60;;;7.70;78.50;;;7.14;64.46;95603.09;5051533;28;20234;-82
2021/11/11 08:15:14;;;;;;;30.67;17.35;;;7.70;78.40;;;7.16;64.49;95603.78;5064149;28;20657;-81
2021/11/11 08:17:44;;;;;;;27.75;15.55;;;7.70;78.50;;;7.16;64.12;95601.97;5066660;28;20286;-81
2021/11/11 08:20:14;;;;;;;25.67;14.98;;;7.70;78.40;;;7.20;64.32;95603.31;5065012;28;20199;-81
2021/11/11 08:22:42;;;;;;;28.55;15.43;;;7.80;78.50;;;7.24;64.11;95606.44;5068169;28;20276;-81
2021/11/11 08:25:13;;;;;;;27.00;15.85;;;7.80;78.60;;;7.27;64.17;95605.31;5037097;28;20219;-81
2021/11/11 08:27:42;;;;;;;29.65;16.55;;;7.80;78.50;;;7.29;64.31;95603.38;5069902;28;20307;-82
2021/11/11 08:30:14;;;;;;;33.50;16.17;;;7.80;78.50;;;7.29;64.24;95617.22;5087302;28;20279;-82
2021/11/11 08:32:45;;;;;;;33.85;15.75;;;7.80;78.50;;;7.27;64.30;95607.91;5052426;28;20243;-82
2021/11/11 08:35:13;;;;;;;32.58;15.45;;;7.90;78.50;;;7.31;64.20;95615.28;5067996;28;20191;-82
2021/11/11 08:37:42;;;;;;;33.85;14.98;;;7.90;78.50;;;7.30;63.82;95624.09;5049168;28;20704;-82
2021/11/11 08:40:11;;;;;;;31.77;15.75;;;7.90;78.40;;;7.30;64.14;95618.88;5043886;28;20191;-81
2021/11/11 08:42:39;;;;;;;32.15;16.70;;;7.90;78.40;;;7.34;64.13;95612.34;5050295;28;20250;-82
2021/11/11 08:45:08;;;;;;;26.90;15.93;;;7.90;78.40;;;7.36;64.04;95612.19;5069463;28;20609;-82
2021/11/11 08:47:36;;;;;;;29.30;15.15;;;7.90;78.30;;;7.36;64.17;95612.19;5069849;28;20223;-82
2021/11/11 08:50:05;;;;;;;25.73;15.13;;;7.90;78.30;;;7.39;63.97;95617.13;5052627;28;20227;-81
2021/11/11 08:52:35;;;;;;;28.38;15.68;;;8.00;78.50;;;7.37;64.10;95612.06;5066836;28;20285;-82
2021/11/11 08:55:03;;;;;;;33.13;15.35;;;8.00;78.40;;;7.43;64.23;95607.19;5050771;28;20203;-82
2021/11/11 08:57:31;;;;;;;32.95;15.35;;;8.00;78.50;;;7.45;64.21;95593.00;5051080;28;20693;-83
2021/11/11 09:00:16;;;;;;;27.77;15.65;;;8.00;78.50;;;7.48;63.88;95595.31;5067471;28;20199;-81
2021/11/11 09:02:45;;;;;;;29.58;15.00;;;8.00;78.70;;;7.50;63.94;95593.34;5065369;28;20268;-81
2021/11/11 09:05:14;;;;;;;28.73;14.73;;;8.00;78.40;;;7.55;64.17;95597.31;5041353;28;20196;-82
2021/11/11 09:07:43;;;;;;;28.67;15.23;;;8.10;78.50;;;7.56;64.16;95585.91;5069434;28;20390;-83
2021/11/11 09:10:14;;;;;;;25.35;15.23;;;8.10;78.80;;;7.58;63.84;95589.97;5036144;28;20739;-83
2021/11/11 09:12:43;;;;;;;36.38;15.20;;;8.10;78.50;;;7.61;63.98;95591.47;5034831;28;20761;-82
2021/11/11 09:15:15;;;;;;;30.10;15.85;;;8.10;78.40;;;7.61;63.88;95607.94;5067793;28;20270;-82
2021/11/11 09:17:43;;;;;;;33.00;15.35;;;8.20;78.50;;;7.65;63.98;95611.88;5050229;28;20245;-81
2021/11/11 09:20:13;;;;;;;30.90;14.43;;;8.20;78.40;;;7.66;63.82;95603.06;5049985;28;20210;-80
2021/11/11 09:22:41;;;;;;;33.67;15.73;;;8.20;78.50;;;7.67;63.90;95609.09;5070208;28;20219;-82
2021/11/11 09:25:10;;;;;;;49.85;16.65;;;8.20;78.40;;;7.68;64.02;95606.34;5022510;28;20223;-80
2021/11/11 09:27:42;;;;;;;47.72;19.98;;;8.20;78.50;;;7.72;63.75;95603.41;5053114;28;20222;-81
2021/11/11 09:30:16;;;;;;;41.60;19.08;;;8.30;78.50;;;7.69;63.37;95605.38;5037078;28;20219;-82
2021/11/11 09:32:45;;;;;;;39.72;18.13;;;8.30;78.40;;;7.70;63.85;95611.38;5039671;28;20219;-81
2021/11/11 09:35:13;;;;;;;31.23;18.08;;;8.30;78.30;;;7.70;63.72;95619.22;5072286;28;20222;-81
2021/11/11 09:37:40;;;;;;;35.40;17.15;;;8.30;78.30;;;7.71;63.97;95614.84;5074240;28;20629;-81
2021/11/11 09:40:16;;;;;;;51.95;18.33;;;8.30;78.30;;;7.71;63.85;95620.88;5091955;28;20190;-81
2021/11/11 09:42:44;;;;;;;41.08;17.38;;;8.30;78.40;;;7.71;63.72;95620.06;5053415;28;20585;-81
2021/11/11 09:45:17;;;;;;;44.35;19.92;;;8.30;78.30;;;7.69;63.80;95612.38;5049002;28;20718;-82
2021/11/11 09:50:32;;;;;;;45.80;18.02;;;8.30;78.30;;;7.68;63.92;95610.75;4974905;28;20309;-89
2021/11/11 09:53:12;;;;;;;40.08;17.65;;;8.30;78.30;;;7.68;63.79;95606.34;4955585;28;20206;-87
2021/11/11 09:58:45;;;;;;;41.65;16.42;;;8.30;79.20;;;7.74;63.85;95610.13;4946269;28;20245;-88
2021/11/11 10:01:22;;;;;;;30.92;15.95;;;8.30;78.40;;;7.77;64.03;95607.19;4945351;28;20673;-89
2021/11/11 10:03:52;;;;;;;35.97;16.77;;;8.30;78.60;;;7.81;64.04;95607.69;4940423;28;20222;-87
2021/11/11 10:06:24;;;;;;;32.35;17.17;;;8.30;78.50;;;7.84;63.92;95610.81;4944403;28;20261;-89
2021/11/11 10:09:00;;;;;;;46.88;20.83;;;8.40;78.50;;;7.81;63.86;95598.06;4957057;28;20673;-88
2021/11/11 10:11:49;;;;;;;39.78;20.90;;;8.50;78.50;;;7.89;63.59;95604.31;4928538;28;20237;-88
2021/11/11 10:14:33;;;;;;;43.17;18.20;;;8.40;78.50;;;7.88;63.86;95603.47;4949321;28;20237;-90
2021/11/11 10:17:07;;;;;;;33.17;17.08;;;8.50;78.50;;;7.90;63.80;95585.84;4963088;28;20222;-88
2021/11/11 10:19:40;;;;;;;40.58;16.52;;;8.50;78.40;;;7.95;63.95;95583.59;4958687;28;20222;-88
2021/11/11 10:22:32;;;;;;;32.85;15.55;;;8.50;78.40;;;7.99;64.30;95576.25;4944953;28;20211;-88
2021/11/11 10:25:03;;;;;;;34.60;16.35;;;8.50;78.50;;;7.96;63.89;95577.38;4954369;28;20234;-88
2021/11/11 10:27:43;;;;;;;39.80;17.35;;;8.60;78.50;;;8.05;63.80;95582.63;4959870;28;20203;-87
2021/11/11 10:30:30;;;;;;;35.88;17.20;;;8.60;78.40;;;8.00;63.76;95570.06;4958929;28;20226;-88
2021/11/11 10:33:13;;;;;;;59.20;16.85;;;8.60;78.30;;;8.05;63.60;95578.22;4963859;28;20248;-88
2021/11/11 10:35:48;;;;;;;40.70;17.05;;;8.60;78.40;;;8.04;63.73;95573.97;4944253;28;20211;-89
2021/11/11 10:38:19;;;;;;;41.20;17.33;;;8.60;78.20;;;8.07;63.70;95565.00;4949940;28;20288;-89
2021/11/11 10:40:52;;;;;;;43.55;17.42;;;8.60;78.20;;;8.08;63.56;95571.84;4928722;28;20229;-88
2021/11/11 10:43:25;;;;;;;36.75;17.65;;;8.60;78.20;;;8.10;63.24;95567.28;4959535;28;20223;-89
2021/11/11 10:45:56;;;;;;;51.28;16.60;;;8.70;78.30;;;8.14;63.61;95568.59;4942938;28;20210;-90
2021/11/11 10:48:26;;;;;;;42.58;17.02;;;8.70;78.30;;;8.13;63.69;95569.56;4952540;28;20221;-89
2021/11/11 10:51:00;;;;;;;45.55;18.02;;;8.70;78.30;;;8.14;63.59;95579.88;4962140;28;20219;-89
2021/11/11 10:53:32;;;;;;;45.70;17.27;;;8.70;78.30;;;8.13;63.73;95574.81;4964996;28;20222;-88
2021/11/11 10:56:03;;;;;;;49.30;18.13;;;8.70;78.20;;;8.11;63.72;95566.31;4943124;28;20210;-88
2021/11/11 10:58:34;;;;;;;51.47;18.27;;;8.70;78.10;;;8.09;63.62;95563.88;4951684;28;20530;-89
2021/11/11 11:01:10;;;;;;;49.08;18.73;;;8.70;78.10;;;8.08;63.65;95551.78;4962504;28;20281;-88
2021/11/11 11:03:42;;;;;;;43.40;18.85;;;8.70;78.20;;;8.05;63.85;95557.31;4952434;28;20229;-88
2021/11/11 11:06:16;;;;;;;50.58;17.08;;;8.70;78.00;;;8.05;63.58;95557.31;4943851;28;20210;-89
2021/11/11 11:08:50;;;;;;;48.03;17.50;;;8.60;78.00;;;8.04;63.60;95547.84;4950146;28;20214;-89